• Join FlightAware (Why Join?)
  • Login
  • US Flag 
07:57PM EDT


 

Airport Tracker/Info


-or-


 

Live Flight TrackerFlight Track Log ✈ N1045F ✈ 21-Jul-2013 ✈ KASG - KBTL

Flight Track Log - Related Links

Times and Time Zones

All times are in EDT time to prevent confusion due to time zone crossing. See the N1045F flight status page for this flight to view local times or setup timezone preferences in your user account.

Time Position Orientation Groundspeed Altitude Reporting Facility
EDT Latitude Longitude Course Direction KTS MPH feet Rate Location/Type
03:52PM 36.1675 -94.0592 47° Northeast 174 200 2,600  Level Kansas City Center
03:53PM 36.1975 -94.0219 45° Northeast 154 177 3,300 480 Climbing Kansas City Center
03:54PM 36.2272 -93.9856 45° Northeast 152 175 3,700 300 Climbing Kansas City Center
03:55PM 36.2564 -93.9478 46° Northeast 152 175 4,000 240 Climbing Kansas City Center
03:56PM 36.3459 -93.8797 46° Northeast  Level FlightAware Approximate
03:57PM 36.3760 -93.8403 47° Northeast  Level FlightAware Approximate
03:57PM 36.3006 -93.8978 42° Northeast  Level FlightAware Approximate
03:57PM 36.3197 -93.8653 42° Northeast 151 174 4,600  Level Kansas City Center
03:58PM 36.3506 -93.8267 45° Northeast 153 176 4,700 180 Climbing Kansas City Center
03:59PM 36.3814 -93.7886 45° Northeast 155 178 5,000 120 Climbing Kansas City Center
04:00PM 36.4125 -93.7478 47° Northeast 157 181 5,000  Level Kansas City Center
04:01PM 36.4481 -93.7036 45° Northeast 167 192 5,000  Level Kansas City Center
04:02PM 36.4844 -93.6583 45° Northeast 175 201 5,000  Level Kansas City Center
04:03PM 36.5278 -93.6039 45° Northeast 181 208 5,000  Level Kansas City Center
04:04PM 36.5622 -93.5592 35° Northeast 181 208 5,000  Level Kansas City Center
04:05PM 36.5673 -93.5696 35° Northeast  Level FlightAware Approximate
04:05PM 36.5986 -93.5144 45° Northeast 182 209 5,000  Level Kansas City Center
04:07PM 36.6328 -93.4689 47° Northeast 181 208 5,000  Level Kansas City Center
04:08PM 36.6747 -93.4267 39° Northeast 182 209 5,000  Level Kansas City Center
04:09PM 36.7122 -93.3844 42° Northeast 182 209 5,000  Level Kansas City Center
04:10PM 36.7503 -93.3428 41° Northeast 182 209 5,000 180 Level Kansas City Center
04:11PM 36.7950 -93.2967 40° Northeast 178 205 5,400 360 Climbing Kansas City Center
04:12PM 36.8328 -93.2642 35° Northeast 171 197 5,800 360 Climbing Kansas City Center
04:13PM 36.8667 -93.2272 41° Northeast 165 190 6,200 360 Climbing Kansas City Center
04:14PM 36.8978 -93.1853 47° Northeast 163 188 6,600 360 Climbing Kansas City Center
04:15PM 36.9253 -93.1400 53° Northeast 162 186 7,000 180 Climbing Kansas City Center
04:16PM 36.9558 -93.0936 50° Northeast 166 191 7,000  Level Kansas City Center
04:17PM 36.9858 -93.0425 54° Northeast 173 199 7,000  Level Kansas City Center
04:18PM 37.0239 -92.9803 53° Northeast 181 208 7,000  Level Kansas City Center
04:19PM 37.0594 -92.9311 48° Northeast 187 215 7,000  Level Kansas City Center
04:20PM 37.0978 -92.8883 42° Northeast 187 215 7,000  Level Kansas City Center
04:21PM 37.1328 -92.8411 47° Northeast 186 214 7,000  Level Kansas City Center
04:22PM 37.1683 -92.7944 46° Northeast 185 213 7,000  Level Kansas City Center
04:23PM 37.2056 -92.7444 47° Northeast 185 213 7,000  Level Kansas City Center
04:24PM 37.2472 -92.6917 45° Northeast 187 215 7,000  Level Kansas City Center
04:25PM 37.2836 -92.6439 46° Northeast 188 216 7,000  Level Kansas City Center
04:26PM 37.3197 -92.5969 46° Northeast 188 216 7,000  Level Kansas City Center
04:27PM 37.3553 -92.5494 47° Northeast 187 215 7,000  Level Kansas City Center
04:28PM 37.3911 -92.5011 47° Northeast 188 216 7,000  Level Kansas City Center
04:29PM 37.4264 -92.4536 47° Northeast 187 215 7,000  Level Kansas City Center
04:30PM 37.4672 -92.3928 50° Northeast 188 216 7,000  Level Kansas City Center
04:31PM 37.5042 -92.3469 45° Northeast 188 216 7,000  Level Kansas City Center
04:32PM 37.5403 -92.3008 45° Northeast 187 215 7,000  Level Kansas City Center
04:33PM 37.5750 -92.2542 47° Northeast 185 213 7,000  Level Kansas City Center
04:34PM 37.6094 -92.2083 47° Northeast 183 211 7,000  Level Kansas City Center
04:35PM 37.6436 -92.1633 46° Northeast 180 207 7,000  Level Kansas City Center
04:36PM 37.6850 -92.1083 46° Northeast 180 207 7,000  Level Kansas City Center
04:38PM 37.7194 -92.0631 46° Northeast 180 207 7,000  Level Kansas City Center
04:39PM 37.7528 -92.0181 47° Northeast 178 205 7,000  Level Kansas City Center
04:40PM 37.7858 -91.9722 48° Northeast 177 204 7,000  Level Kansas City Center
04:41PM 37.8200 -91.9278 46° Northeast 177 204 7,000  Level Kansas City Center
04:42PM 37.8536 -91.8828 47° Northeast 177 204 7,000  Level Kansas City Center
04:43PM 37.8936 -91.8289 47° Northeast 176 203 7,000  Level Kansas City Center
04:44PM 37.9275 -91.7844 46° Northeast 175 201 7,000  Level Kansas City Center
04:45PM 37.9614 -91.7389 47° Northeast 176 203 7,000  Level Kansas City Center
04:46PM 37.9944 -91.6944 47° Northeast 175 201 7,000  Level Kansas City Center
04:47PM 38.0275 -91.6500 47° Northeast 174 200 7,000  Level Kansas City Center
04:48PM 38.0600 -91.6056 47° Northeast 173 199 7,000  Level Kansas City Center
04:49PM 38.0989 -91.5522 47° Northeast 172 198 7,000  Level Kansas City Center
04:50PM 38.1314 -91.5097 46° Northeast 170 196 7,000  Level Kansas City Center
04:51PM 38.1636 -91.4658 47° Northeast 169 194 7,000  Level Kansas City Center
04:52PM 38.1969 -91.4203 47° Northeast 172 198 7,000  Level Kansas City Center
04:53PM 38.2292 -91.3772 46° Northeast 173 199 7,000  Level Kansas City Center
04:54PM 38.2608 -91.3325 48° Northeast 173 199 7,000  Level Kansas City Center
04:55PM 38.2989 -91.2794 48° Northeast 169 194 7,000  Level Kansas City Center
04:56PM 38.3303 -91.2369 47° Northeast 167 192 7,000  Level Kansas City Center
04:57PM 38.3625 -91.1936 47° Northeast 167 192 7,000  Level Kansas City Center
04:58PM 38.3936 -91.1503 48° Northeast 168 193 7,000  Level Kansas City Center
04:59PM 38.4250 -91.1069 47° Northeast 167 192 7,000  Level Kansas City Center
05:00PM 38.4561 -91.0631 48° Northeast 168 193 7,000  Level Kansas City Center
05:01PM 38.4956 -91.0103 46° Northeast 171 197 7,000  Level Kansas City Center
05:02PM 38.5272 -90.9661 47° Northeast 170 196 7,000  Level Kansas City Center
05:03PM 38.5583 -90.9219 48° Northeast 169 194 7,000  Level Kansas City Center
05:04PM 38.5903 -90.8781 47° Northeast 169 194 7,000  Level Kansas City Center
05:05PM 38.6225 -90.8344 47° Northeast 169 194 7,000  Level Kansas City Center
05:06PM 38.6367 -90.7783 72° East 180 207 7,000  Level Kansas City Center
05:07PM 38.6372 -90.7194 89° East 169 194 7,000  Level Kansas City Center
05:09PM 38.6414 -90.6481 86° East 169 194 7,000  Level Kansas City Center
05:10PM 38.6456 -90.5878 85° East 170 196 7,000  Level Kansas City Center
05:11PM 38.6486 -90.5281 86° East 170 196 7,000  Level Kansas City Center
05:12PM 38.6519 -90.4678 86° East 171 197 7,000  Level Kansas City Center
05:13PM 38.6575 -90.3972 84° East 169 194 7,000  Level Kansas City Center
05:14PM 38.6614 -90.3417 85° East 170 196 7,000  Level Kansas City Center
05:15PM 38.6775 -90.2850 70° East 170 196 7,000  Level Kansas City Center
05:16PM 38.7142 -90.2506 36° Northeast 165 190 7,000  Level Kansas City Center
05:17PM 38.7522 -90.1944 49° Northeast 170 196 7,000  Level Kansas City Center
05:18PM 38.7853 -90.1531 44° Northeast 170 196 7,000  Level Kansas City Center
05:19PM 38.8189 -90.1097 45° Northeast 171 197 7,000  Level Kansas City Center
05:20PM 38.8528 -90.0664 45° Northeast 171 197 7,000  Level Kansas City Center
05:21PM 38.8869 -90.0219 45° Northeast 173 199 7,000  Level Kansas City Center
05:22PM 38.9269 -89.9700 45° Northeast 172 198 7,000  Level Kansas City Center
05:23PM 38.9597 -89.9264 46° Northeast 170 196 7,000  Level Kansas City Center
05:24PM 38.9947 -89.8828 44° Northeast 174 200 7,000  Level Kansas City Center
05:25PM 39.0306 -89.8364 45° Northeast 171 197 7,000  Level Kansas City Center
05:26PM 39.0644 -89.7928 45° Northeast 172 198 7,000  Level Kansas City Center
05:27PM 39.0997 -89.7464 46° Northeast 169 194 7,000  Level Kansas City Center
05:28PM 39.1328 -89.7031 45° Northeast 170 196 7,000  Level Kansas City Center
05:29PM 39.1689 -89.6547 46° Northeast 173 199 7,000  Level Kansas City Center
05:30PM 39.1997 -89.6125 47° Northeast 172 198 7,000  Level Kansas City Center
05:31PM 39.2336 -89.5697 44° Northeast 170 196 7,000  Level Kansas City Center
05:32PM 39.2669 -89.5272 45° Northeast 170 196 7,000  Level Kansas City Center
05:33PM 39.3000 -89.4833 46° Northeast 170 196 7,000  Level Kansas City Center
05:34PM 39.3331 -89.4383 46° Northeast 172 198 7,000  Level Kansas City Center
05:35PM 39.3736 -89.3861 45° Northeast 172 198 7,000  Level Kansas City Center
05:36PM 39.4069 -89.3422 45° Northeast 171 197 7,000  Level Kansas City Center
05:38PM 39.4686 -89.2617 45° Northeast 172 198 7,000  Level Chicago Center
05:39PM 39.5017 -89.2169 46° Northeast 172 198 7,000  Level Chicago Center
05:40PM 39.5350 -89.1742 45° Northeast 171 197 7,000  Level Chicago Center
05:41PM 39.5681 -89.1306 45° Northeast 170 196 7,000  Level Chicago Center
05:43PM 39.6147 -89.0683 46° Northeast 171 197 7,000  Level Kansas City Center
05:44PM 39.6481 -89.0233 46° Northeast 172 198 7,000  Level Kansas City Center
05:45PM 39.6817 -88.9792 45° Northeast 172 198 7,000  Level Kansas City Center
05:46PM 39.7144 -88.9339 47° Northeast 172 198 7,000  Level Kansas City Center
05:47PM 39.7478 -88.8889 46° Northeast 173 199 7,000  Level Kansas City Center
05:48PM 39.7808 -88.8453 45° Northeast 171 197 7,000  Level Kansas City Center
05:49PM 39.8206 -88.7925 46° Northeast 171 197 7,000  Level Kansas City Center
05:50PM 39.8533 -88.7481 46° Northeast 170 196 7,000  Level Kansas City Center
05:51PM 39.8792 -88.7139 45° Northeast 171 197 7,000  Level Chicago Center
05:52PM 39.9119 -88.6681 47° Northeast 172 198 7,000  Level Chicago Center
05:53PM 39.9453 -88.6233 46° Northeast 172 198 7,000  Level Chicago Center
05:54PM 39.9792 -88.5778 46° Northeast 173 199 7,000  Level Chicago Center
05:55PM 40.0139 -88.5300 46° Northeast 172 198 7,000  Level Chicago Center
05:56PM 40.0458 -88.4886 45° Northeast 171 197 7,000  Level Chicago Center
05:57PM 40.0842 -88.4358 46° Northeast 171 197 7,000  Level Chicago Center
05:58PM 40.1175 -88.3903 46° Northeast 172 198 7,000  Level Chicago Center
05:59PM 40.1497 -88.3464 46° Northeast 170 196 7,000  Level Chicago Center
06:00PM 40.1836 -88.3011 46° Northeast 174 200 7,000  Level Chicago Center
06:01PM 40.2169 -88.2564 46° Northeast 173 199 7,000  Level Chicago Center
06:02PM 40.2561 -88.2017 47° Northeast 172 198 7,000  Level Chicago Center
06:03PM 40.2894 -88.1575 45° Northeast 172 198 7,000  Level Chicago Center
06:04PM 40.3203 -88.1136 47° Northeast 168 193 7,000  Level Chicago Center
06:05PM 40.3528 -88.0683 47° Northeast 171 197 7,000  Level Chicago Center
06:06PM 40.3853 -88.0242 46° Northeast 170 196 7,000  Level Chicago Center
06:08PM 40.4280 -87.9656 46° Northeast  Level FlightAware Approximate
06:08PM 40.4578 -87.9247 46° Northeast 174 200 7,000  Level Chicago Center
06:09PM 40.4906 -87.8786 47° Northeast 172 198 7,000  Level Chicago Center
06:10PM 40.5233 -87.8339 46° Northeast 171 197 7,000  Level Chicago Center
06:11PM 40.5567 -87.7883 46° Northeast 173 199 7,000  Level Chicago Center
06:12PM 40.5958 -87.7342 46° Northeast 172 198 7,000  Level Chicago Center
06:13PM 40.6269 -87.6883 48° Northeast 170 196 7,000  Level Chicago Center
06:14PM 40.6597 -87.6439 46° Northeast 170 196 7,000  Level Chicago Center
06:15PM 40.6925 -87.5989 46° Northeast 171 197 7,000  Level Chicago Center
06:17PM 40.7247 -87.5533 47° Northeast 171 197 7,000  Level Chicago Center
06:18PM 40.7631 -87.4986 47° Northeast 170 196 7,000  Level Chicago Center
06:19PM 40.7961 -87.4544 45° Northeast 171 197 7,000  Level Chicago Center
06:20PM 40.8286 -87.4081 47° Northeast 172 198 7,000  Level Chicago Center
06:21PM 40.8614 -87.3628 46° Northeast 169 194 7,000  Level Chicago Center
06:22PM 40.9014 -87.3056 47° Northeast 175 201 7,000  Level Chicago Center
06:23PM 40.9344 -87.2583 47° Northeast 176 203 7,000  Level Chicago Center
06:24PM 40.9678 -87.2108 47° Northeast 177 204 7,000 -60 Level Chicago Center
06:25PM 41.0006 -87.1650 47° Northeast 175 201 6,900 -60 Descending Chicago Center
06:26PM 41.0333 -87.1189 47° Northeast 174 200 6,900  Level Chicago Center
06:27PM 41.0733 -87.0614 47° Northeast 177 204 7,000  Climbing Chicago Center
06:28PM 41.1064 -87.0153 46° Northeast 174 200 7,000 -180 Level Chicago Center
06:29PM 41.1397 -86.9661 48° Northeast 179 206 6,700 -300 Descending Chicago Center
06:30PM 41.1747 -86.9161 47° Northeast 185 213 6,500 -300 Descending Chicago Center
06:31PM 41.2097 -86.8664 47° Northeast 186 214 6,200 -360 Descending Chicago Center
06:32PM 41.2508 -86.8069 47° Northeast 183 211 5,800 -360 Descending Chicago Center
06:33PM 41.2853 -86.7567 48° Northeast 185 213 5,500 -300 Descending Chicago Center
06:34PM 41.3228 -86.7050 46° Northeast 184 212 5,200 -300 Descending Chicago Center
06:35PM 41.3553 -86.6544 49° Northeast 182 209 5,000 -120 Descending Chicago Center
06:36PM 41.3886 -86.6086 46° Northeast 176 203 5,000  Level Chicago Center
06:37PM 41.4192 -86.5625 49° Northeast 169 194 5,000  Level Chicago Center
06:38PM 41.4506 -86.5169 47° Northeast 167 192 5,000  Level Chicago Center
06:39PM 41.4822 -86.4728 46° Northeast 165 190 5,000  Level Chicago Center
06:40PM 41.5203 -86.4178 47° Northeast 166 191 5,000 -120 Level Chicago Center
06:41PM 41.5506 -86.3700 50° Northeast 168 193 4,800 -300 Descending Chicago Center
06:42PM 41.5836 -86.3214 48° Northeast 171 197 4,400 -360 Descending Chicago Center
06:43PM 41.6172 -86.2731 47° Northeast 175 201 4,100 -240 Descending Chicago Center
06:44PM 41.6503 -86.2244 48° Northeast 177 204 4,000 -60 Descending Chicago Center
06:46PM 41.6828 -86.1781 47° Northeast 175 201 4,000  Level Chicago Center
06:47PM 41.7197 -86.1239 48° Northeast 169 194 4,000  Level Chicago Center
06:48PM 41.7511 -86.0781 47° Northeast 167 192 4,000  Level Chicago Center
06:49PM 41.7831 -86.0311 48° Northeast 168 193 4,000  Level Chicago Center
06:50PM 41.8142 -85.9850 48° Northeast 168 193 4,000  Level Chicago Center
06:51PM 41.8444 -85.9403 48° Northeast 165 190 4,000  Level Chicago Center
06:52PM 41.8747 -85.8964 47° Northeast 163 188 4,000  Level Chicago Center
06:53PM 41.9106 -85.8422 48° Northeast 162 186 4,000 -60 Level Chicago Center
06:54PM 41.9408 -85.7989 47° Northeast 161 185 3,900 -180 Descending Chicago Center
06:55PM 41.9719 -85.7519 48° Northeast 164 189 3,700 -240 Descending Chicago Center